Time;durP1;ratioP1;P1;durP2;ratioP2;P2;SDS_P1;SDS_P2;PMS_P1;PMS_P2;Temp;Humidity;BMP_temperature;BMP_pressure;BME280_temperature;BME280_humidity;BME280_pressure;Samples;Min_cycle;Max_cycle;Signal;HPM_P1;HPM_P2
2021/09/05 00:01:03;;;;;;;8.73;5.15;;;15.50;68.10;;;;;;5043931;28;20044;-48
2021/09/05 00:03:47;;;;;;;8.13;5.18;;;15.40;68.20;;;;;;5044048;28;20052;-49
2021/09/05 00:06:31;;;;;;;7.72;4.90;;;15.50;68.30;;;;;;5043882;28;20241;-49
2021/09/05 00:09:16;;;;;;;8.20;5.13;;;15.40;68.40;;;;;;5043820;28;20044;-48
2021/09/05 00:12:00;;;;;;;9.05;5.80;;;15.30;68.50;;;;;;5043692;28;20025;-49
2021/09/05 00:14:44;;;;;;;8.48;5.45;;;15.30;68.70;;;;;;5043959;28;20039;-49
2021/09/05 00:17:29;;;;;;;7.63;5.50;;;15.30;68.30;;;;;;5044287;28;20040;-48
2021/09/05 00:20:13;;;;;;;10.95;5.53;;;15.40;68.30;;;;;;5044132;28;20033;-48
2021/09/05 00:22:57;;;;;;;9.38;5.43;;;15.30;68.40;;;;;;5043922;28;20388;-48
2021/09/05 00:25:42;;;;;;;7.30;5.07;;;15.30;68.40;;;;;;5043930;28;20036;-49
2021/09/05 00:28:26;;;;;;;8.88;5.88;;;15.30;68.30;;;;;;5043569;28;20075;-50
2021/09/05 00:31:10;;;;;;;7.55;5.57;;;15.40;68.40;;;;;;5043751;28;20048;-48
2021/09/05 00:33:58;;;;;;;8.32;5.25;;;15.30;68.40;;;;;;5043491;28;20064;-50
2021/09/05 00:36:42;;;;;;;7.40;5.18;;;15.30;68.50;;;;;;5042737;28;20374;-47
2021/09/05 00:39:26;;;;;;;7.35;5.57;;;15.40;68.50;;;;;;5042576;28;20056;-49
2021/09/05 00:42:11;;;;;;;7.28;5.38;;;15.50;68.40;;;;;;5043903;28;20060;-49
2021/09/05 00:44:55;;;;;;;8.88;5.72;;;15.30;68.70;;;;;;5043557;28;20045;-48
2021/09/05 00:47:39;;;;;;;7.60;5.20;;;15.50;68.50;;;;;;5043455;28;20083;-50
2021/09/05 00:50:24;;;;;;;9.23;6.25;;;15.30;69.00;;;;;;5043378;28;20033;-49
2021/09/05 00:53:08;;;;;;;7.55;5.20;;;15.30;68.80;;;;;;5043331;28;20043;-49
2021/09/05 00:55:52;;;;;;;8.93;5.18;;;15.30;68.90;;;;;;5043333;28;20032;-49
2021/09/05 00:58:38;;;;;;;8.85;5.43;;;15.20;69.00;;;;;;5043295;28;20375;-50
2021/09/05 01:01:22;;;;;;;7.15;5.13;;;15.10;69.30;;;;;;5043276;28;20375;-51
2021/09/05 01:04:07;;;;;;;8.02;5.25;;;15.20;69.20;;;;;;5043171;28;20091;-49
2021/09/05 01:06:51;;;;;;;10.85;5.53;;;15.10;69.20;;;;;;5043180;28;20075;-49
2021/09/05 01:09:35;;;;;;;8.23;5.32;;;15.10;69.00;;;;;;5043207;28;20025;-48
2021/09/05 01:12:20;;;;;;;8.05;5.43;;;15.10;69.10;;;;;;5043173;28;20032;-49
2021/09/05 01:15:05;;;;;;;8.63;5.95;;;15.00;69.10;;;;;;5043905;28;20029;-48
2021/09/05 01:17:49;;;;;;;7.78;5.20;;;15.00;69.00;;;;;;5043311;28;20080;-48
2021/09/05 01:20:34;;;;;;;6.82;4.75;;;15.00;68.80;;;;;;5043679;28;20036;-47
2021/09/05 01:23:18;;;;;;;9.45;5.03;;;15.00;68.90;;;;;;5046200;28;20071;-47
2021/09/05 01:26:04;;;;;;;8.38;5.45;;;15.00;68.90;;;;;;5047245;28;20060;-48
2021/09/05 01:28:48;;;;;;;10.48;5.20;;;14.90;69.10;;;;;;5046123;28;20375;-49
2021/09/05 01:31:43;;;;;;;7.32;5.22;;;14.90;69.10;;;;;;5046896;28;20037;-48
2021/09/05 01:34:27;;;;;;;7.85;5.25;;;14.80;69.00;;;;;;5032099;28;20049;-51
2021/09/05 01:37:11;;;;;;;8.30;5.22;;;14.80;68.90;;;;;;5046590;28;20036;-49
2021/09/05 01:39:55;;;;;;;7.15;5.22;;;14.80;68.80;;;;;;5046700;28;20332;-51
2021/09/05 01:42:39;;;;;;;7.95;5.35;;;14.80;68.90;;;;;;5046517;28;20028;-48
2021/09/05 01:45:24;;;;;;;7.35;5.00;;;14.80;69.00;;;;;;5046449;28;20051;-49
2021/09/05 01:48:08;;;;;;;8.10;5.50;;;14.80;69.00;;;;;;5047121;28;20036;-50
2021/09/05 01:50:52;;;;;;;8.95;5.38;;;14.80;68.90;;;;;;5046530;28;20036;-51
2021/09/05 01:53:36;;;;;;;8.18;5.30;;;14.70;69.00;;;;;;5046890;28;20052;-49
2021/09/05 01:56:20;;;;;;;7.05;4.97;;;14.70;68.90;;;;;;5045390;28;20032;-49
2021/09/05 01:59:05;;;;;;;7.95;5.43;;;14.80;68.60;;;;;;5046252;28;20344;-49
2021/09/05 02:01:49;;;;;;;7.65;5.00;;;14.70;68.80;;;;;;5046536;28;20036;-50
2021/09/05 02:04:34;;;;;;;6.70;4.90;;;14.60;68.80;;;;;;5046423;28;20036;-48
2021/09/05 02:07:19;;;;;;;6.55;4.93;;;14.60;68.80;;;;;;5046000;28;20024;-49
2021/09/05 02:10:03;;;;;;;8.25;5.35;;;14.60;68.70;;;;;;5046197;28;20052;-50
2021/09/05 02:12:48;;;;;;;8.48;5.38;;;14.60;68.80;;;;;;5046053;28;20056;-49
2021/09/05 02:15:32;;;;;;;6.82;5.03;;;14.50;68.90;;;;;;5046005;28;21997;-48
2021/09/05 02:18:17;;;;;;;8.68;5.22;;;14.50;68.90;;;;;;5045867;28;20032;-48
2021/09/05 02:21:01;;;;;;;8.60;5.07;;;14.50;68.70;;;;;;5046290;28;20068;-48
2021/09/05 02:23:45;;;;;;;8.70;5.00;;;14.40;68.60;;;;;;5045894;28;20036;-49
2021/09/05 02:26:30;;;;;;;7.25;5.00;;;14.40;68.70;;;;;;5046210;28;20041;-49
2021/09/05 02:29:14;;;;;;;8.38;5.40;;;14.40;68.80;;;;;;5045878;28;20091;-50
2021/09/05 02:31:58;;;;;;;7.95;5.20;;;14.40;68.90;;;;;;5045992;28;20036;-49
2021/09/05 02:34:42;;;;;;;8.02;4.80;;;14.30;68.90;;;;;;5044961;28;20408;-52
2021/09/05 02:37:27;;;;;;;10.68;5.07;;;14.40;68.70;;;;;;5045489;28;20093;-47
2021/09/05 02:40:11;;;;;;;9.93;5.20;;;14.30;68.80;;;;;;5045592;28;20031;-51
2021/09/05 02:42:56;;;;;;;6.63;5.00;;;14.30;68.70;;;;;;5045583;28;20033;-48
2021/09/05 02:45:40;;;;;;;6.55;4.65;;;14.30;68.80;;;;;;5045370;28;20028;-51
2021/09/05 02:48:24;;;;;;;10.00;4.93;;;14.30;68.70;;;;;;5045226;28;20041;-50
2021/09/05 02:51:08;;;;;;;7.18;4.68;;;14.20;68.80;;;;;;5045690;28;20040;-49
2021/09/05 02:53:53;;;;;;;9.60;4.82;;;14.20;68.80;;;;;;5045370;28;20040;-50
2021/09/05 02:56:37;;;;;;;8.07;5.53;;;14.10;68.80;;;;;;5045174;28;20029;-49
2021/09/05 02:59:21;;;;;;;7.13;4.65;;;14.10;69.00;;;;;;5045594;28;20036;-48
2021/09/05 03:02:05;;;;;;;7.85;5.07;;;14.10;68.90;;;;;;5045069;28;20029;-48
2021/09/05 03:04:50;;;;;;;7.70;5.13;;;14.10;68.80;;;;;;5044989;28;20032;-48
2021/09/05 03:07:34;;;;;;;9.40;4.97;;;14.10;68.70;;;;;;5044223;28;20052;-50
2021/09/05 03:10:18;;;;;;;8.82;4.65;;;14.00;68.90;;;;;;5044898;28;20032;-48
2021/09/05 03:13:02;;;;;;;8.05;4.82;;;14.00;69.00;;;;;;5043941;28;20095;-50
2021/09/05 03:15:46;;;;;;;8.32;5.03;;;14.00;68.90;;;;;;5044795;28;20060;-48
2021/09/05 03:18:31;;;;;;;7.55;4.75;;;13.90;68.90;;;;;;5044677;28;20032;-51
2021/09/05 03:21:16;;;;;;;8.05;4.78;;;13.90;69.00;;;;;;5044624;28;20209;-49
2021/09/05 03:24:00;;;;;;;7.60;4.75;;;13.90;69.10;;;;;;5045334;28;20040;-48
2021/09/05 03:26:44;;;;;;;7.57;4.45;;;13.90;68.90;;;;;;5044659;28;20063;-48
2021/09/05 03:29:28;;;;;;;7.15;4.25;;;13.80;68.90;;;;;;5045015;28;20032;-48
2021/09/05 03:32:13;;;;;;;8.32;4.90;;;13.80;68.90;;;;;;5044472;28;20028;-48
2021/09/05 03:34:57;;;;;;;9.35;4.07;;;13.90;69.00;;;;;;5044655;28;20072;-49
2021/09/05 03:37:41;;;;;;;7.65;4.45;;;13.80;69.00;;;;;;5044363;28;20036;-49
2021/09/05 03:40:26;;;;;;;7.43;4.75;;;13.80;69.20;;;;;;5044289;28;20036;-48
2021/09/05 03:43:11;;;;;;;7.20;4.85;;;13.80;69.30;;;;;;5044208;28;20052;-49
2021/09/05 03:45:55;;;;;;;6.93;4.60;;;13.70;69.30;;;;;;5043362;28;20064;-49
2021/09/05 03:48:40;;;;;;;8.10;4.97;;;13.80;69.20;;;;;;5044067;28;20091;-51
2021/09/05 03:51:24;;;;;;;7.53;4.55;;;13.80;69.30;;;;;;5044104;28;20024;-49
2021/09/05 03:54:08;;;;;;;7.85;5.00;;;13.70;69.40;;;;;;5044790;28;20028;-49
2021/09/05 03:56:53;;;;;;;9.07;5.22;;;13.70;69.40;;;;;;5044178;28;20056;-48
2021/09/05 03:59:37;;;;;;;8.85;5.40;;;13.70;69.40;;;;;;5043976;28;20045;-50
2021/09/05 04:02:21;;;;;;;6.85;4.93;;;13.70;69.40;;;;;;5043080;28;20351;-48
2021/09/05 04:05:07;;;;;;;8.95;5.78;;;13.60;69.40;;;;;;5044031;28;20105;-49
2021/09/05 04:10:51;;;;;;;8.55;4.63;;;13.60;69.40;;;;;;5043833;28;20040;-49
2021/09/05 04:13:35;;;;;;;7.00;4.32;;;13.60;69.30;;;;;;5043774;28;20105;-49
2021/09/05 04:16:19;;;;;;;7.43;4.75;;;13.60;69.30;;;;;;5043972;28;20081;-48
2021/09/05 04:19:04;;;;;;;6.78;4.82;;;13.50;69.40;;;;;;5043874;28;20056;-51
2021/09/05 04:21:48;;;;;;;6.95;4.78;;;13.50;69.50;;;;;;5044046;28;20051;-49
2021/09/05 04:24:33;;;;;;;7.45;5.13;;;13.50;69.30;;;;;;5043611;28;20044;-51
2021/09/05 04:27:17;;;;;;;8.73;5.03;;;13.50;69.20;;;;;;5043544;28;20036;-48
2021/09/05 04:30:01;;;;;;;8.40;5.13;;;13.50;69.10;;;;;;5044000;28;20020;-48
2021/09/05 04:32:45;;;;;;;7.68;5.35;;;13.40;69.30;;;;;;5043608;28;20033;-49
2021/09/05 04:35:29;;;;;;;6.88;4.50;;;13.50;69.30;;;;;;5044066;28;20304;-49
2021/09/05 04:38:13;;;;;;;9.30;5.13;;;13.40;69.10;;;;;;5043914;28;20036;-48
2021/09/05 04:40:58;;;;;;;7.60;4.93;;;13.40;69.10;;;;;;5043798;28;20102;-48
2021/09/05 04:43:42;;;;;;;7.63;4.75;;;13.50;69.00;;;;;;5043737;28;20037;-48
2021/09/05 04:46:26;;;;;;;5.85;4.32;;;13.40;69.20;;;;;;5043642;28;20036;-49
2021/09/05 04:49:11;;;;;;;9.70;4.78;;;13.40;69.40;;;;;;5043441;28;20068;-48
2021/09/05 04:51:55;;;;;;;8.63;5.13;;;13.40;69.50;;;;;;5043532;28;20263;-49
2021/09/05 04:54:40;;;;;;;7.53;5.03;;;13.40;69.60;;;;;;5043327;28;20025;-48
2021/09/05 04:57:24;;;;;;;8.93;4.85;;;13.40;69.70;;;;;;5044660;28;20040;-51
2021/09/05 05:00:09;;;;;;;7.30;4.38;;;13.40;69.80;;;;;;5047776;28;20020;-48
2021/09/05 05:02:53;;;;;;;7.75;4.43;;;13.40;69.80;;;;;;5047379;28;20382;-49
2021/09/05 05:05:38;;;;;;;8.48;5.30;;;13.50;69.70;;;;;;5047348;28;20144;-48
2021/09/05 05:08:22;;;;;;;8.23;5.03;;;13.50;69.60;;;;;;5047625;28;20052;-49
2021/09/05 05:11:06;;;;;;;7.40;4.88;;;13.60;69.40;;;;;;5047237;28;20033;-48
2021/09/05 05:13:52;;;;;;;7.93;5.05;;;13.50;69.70;;;;;;5047281;28;20386;-49
2021/09/05 05:16:36;;;;;;;6.63;4.53;;;13.50;69.90;;;;;;5047049;28;20028;-48
2021/09/05 05:19:20;;;;;;;9.75;5.20;;;13.50;70.00;;;;;;5047170;28;20109;-48
2021/09/05 05:22:05;;;;;;;7.97;5.00;;;13.50;70.10;;;;;;5047022;28;20036;-52
2021/09/05 05:24:49;;;;;;;6.55;4.63;;;13.50;70.20;;;;;;5046796;28;20393;-48
2021/09/05 05:27:34;;;;;;;7.07;4.80;;;13.50;70.20;;;;;;5046696;28;20093;-49
2021/09/05 05:30:18;;;;;;;7.18;4.55;;;13.40;70.40;;;;;;5046758;28;20113;-49
2021/09/05 05:33:02;;;;;;;6.78;4.60;;;13.50;70.50;;;;;;5046989;28;20065;-49
2021/09/05 05:35:46;;;;;;;7.45;4.72;;;13.50;70.70;;;;;;5046804;28;20048;-48
2021/09/05 05:38:31;;;;;;;7.13;4.72;;;13.60;70.60;;;;;;5047116;28;20036;-49
2021/09/05 05:41:15;;;;;;;6.93;4.65;;;13.60;70.50;;;;;;5045817;28;20033;-48
2021/09/05 05:43:59;;;;;;;7.75;4.85;;;13.60;70.80;;;;;;5046523;28;20391;-48
2021/09/05 05:46:44;;;;;;;9.93;4.95;;;13.70;71.20;;;;;;5046712;28;20048;-48
2021/09/05 05:49:28;;;;;;;6.65;4.60;;;13.80;71.30;;;;;;5046466;28;20032;-48
2021/09/05 05:52:13;;;;;;;7.28;5.00;;;13.80;71.30;;;;;;5046391;28;20351;-48
2021/09/05 05:54:57;;;;;;;7.45;5.03;;;13.90;70.90;;;;;;5046534;28;20389;-49
2021/09/05 05:57:41;;;;;;;7.07;5.35;;;13.90;71.30;;;;;;5046319;28;20044;-48
2021/09/05 06:00:26;;;;;;;8.88;5.07;;;14.00;71.50;;;;;;5046231;28;20264;-48
2021/09/05 06:03:10;;;;;;;8.25;5.07;;;14.10;71.70;;;;;;5046685;28;20272;-49
2021/09/05 06:05:54;;;;;;;7.88;4.75;;;14.20;71.80;;;;;;5046315;28;20260;-49
2021/09/05 06:08:39;;;;;;;9.23;5.60;;;14.30;71.80;;;;;;5045060;28;20056;-49
2021/09/05 06:11:23;;;;;;;7.60;5.50;;;14.40;71.80;;;;;;5046745;28;20139;-47
2021/09/05 06:14:07;;;;;;;8.15;5.40;;;14.50;71.90;;;;;;5045945;28;20060;-48
2021/09/05 06:16:51;;;;;;;7.82;5.72;;;14.50;72.00;;;;;;5046408;28;20033;-48
2021/09/05 06:19:36;;;;;;;10.15;5.90;;;14.70;72.10;;;;;;5045849;28;20052;-49
2021/09/05 06:22:20;;;;;;;9.07;5.57;;;14.70;72.50;;;;;;5045823;28;20035;-48
2021/09/05 06:25:05;;;;;;;7.68;5.00;;;14.80;72.60;;;;;;5045950;28;20052;-51
2021/09/05 06:27:49;;;;;;;9.20;5.45;;;14.90;72.50;;;;;;5046016;28;20040;-48
2021/09/05 06:30:33;;;;;;;7.72;5.28;;;14.90;72.70;;;;;;5045714;28;20032;-49
2021/09/05 06:33:18;;;;;;;7.53;5.25;;;15.00;72.80;;;;;;5045474;28;20079;-49
2021/09/05 06:36:02;;;;;;;10.15;5.60;;;15.10;72.70;;;;;;5046031;28;20048;-48
2021/09/05 06:38:46;;;;;;;9.45;5.93;;;15.20;72.90;;;;;;5045650;28;20077;-49
2021/09/05 06:41:31;;;;;;;7.38;5.35;;;15.30;72.70;;;;;;5046013;28;20068;-49
2021/09/05 06:44:15;;;;;;;7.70;5.40;;;15.40;72.90;;;;;;5045852;28;20096;-49
2021/09/05 06:47:00;;;;;;;7.43;5.47;;;15.60;72.90;;;;;;5046008;28;20095;-49
2021/09/05 06:49:44;;;;;;;9.60;5.30;;;15.70;73.40;;;;;;5045831;28;20025;-49
2021/09/05 06:52:29;;;;;;;7.68;5.47;;;15.80;73.00;;;;;;5045621;28;20088;-49
2021/09/05 06:55:13;;;;;;;7.38;5.32;;;15.90;73.00;;;;;;5045481;28;20041;-49
2021/09/05 06:57:57;;;;;;;7.80;5.50;;;16.10;72.80;;;;;;5045112;28;20037;-49
2021/09/05 07:00:42;;;;;;;8.43;4.90;;;16.30;73.10;;;;;;5045093;28;20020;-49
2021/09/05 07:03:26;;;;;;;7.65;5.35;;;16.70;73.10;;;;;;5045059;28;20351;-49
2021/09/05 07:06:11;;;;;;;8.18;5.30;;;17.30;72.20;;;;;;5045384;28;20024;-50
2021/09/05 07:08:55;;;;;;;7.72;5.45;;;17.80;70.70;;;;;;5044180;28;20285;-49
2021/09/05 07:11:39;;;;;;;6.72;4.75;;;18.30;69.40;;;;;;5044092;28;20041;-52
2021/09/05 07:14:24;;;;;;;7.43;4.82;;;18.70;68.00;;;;;;5045334;28;20040;-49
2021/09/05 07:17:08;;;;;;;9.68;5.25;;;19.20;66.50;;;;;;5044778;28;20032;-49
2021/09/05 07:19:54;;;;;;;7.63;4.97;;;19.90;64.80;;;;;;5044463;28;20075;-49
2021/09/05 07:22:38;;;;;;;8.32;5.15;;;21.20;60.80;;;;;;5044502;28;20052;-50
2021/09/05 07:25:23;;;;;;;7.38;4.75;;;22.30;57.70;;;;;;5044558;28;20039;-50
2021/09/05 07:28:08;;;;;;;6.82;4.97;;;23.20;55.70;;;;;;5044398;28;20367;-53
2021/09/05 07:30:52;;;;;;;7.65;5.05;;;23.90;53.80;;;;;;5044609;28;20214;-48
2021/09/05 07:33:36;;;;;;;10.25;5.05;;;24.50;51.90;;;;;;5044378;28;20036;-52
2021/09/05 07:36:21;;;;;;;6.78;5.07;;;24.50;51.50;;;;;;5044263;28;20037;-50
2021/09/05 07:39:05;;;;;;;8.80;5.13;;;23.40;54.00;;;;;;5044814;28;20085;-50
2021/09/05 07:41:49;;;;;;;7.47;5.45;;;22.90;55.20;;;;;;5044301;28;20033;-49
2021/09/05 07:44:33;;;;;;;10.63;5.32;;;23.80;53.40;;;;;;5044767;28;20071;-53
2021/09/05 07:47:18;;;;;;;7.63;4.90;;;24.60;51.30;;;;;;5044236;28;20256;-49
2021/09/05 07:50:02;;;;;;;9.38;5.10;;;24.20;52.30;;;;;;5044573;28;20343;-53
2021/09/05 07:52:47;;;;;;;7.75;5.40;;;23.50;53.60;;;;;;5044464;28;20034;-50
2021/09/05 07:55:31;;;;;;;8.48;4.82;;;23.30;54.30;;;;;;5044083;28;20071;-49
2021/09/05 07:58:15;;;;;;;7.60;4.90;;;23.30;54.20;;;;;;5044292;28;20198;-50
2021/09/05 08:01:00;;;;;;;6.65;4.72;;;22.80;54.90;;;;;;5044187;28;20028;-49
2021/09/05 08:03:44;;;;;;;9.30;5.50;;;22.80;55.90;;;;;;5044163;28;20060;-52
2021/09/05 08:06:28;;;;;;;7.13;5.20;;;22.60;56.00;;;;;;5042994;28;20075;-50
2021/09/05 08:09:13;;;;;;;8.98;4.80;;;22.40;56.40;;;;;;5043889;28;20428;-51
2021/09/05 08:11:57;;;;;;;8.80;5.32;;;22.30;56.50;;;;;;5044286;28;20224;-53
2021/09/05 08:14:41;;;;;;;5.55;4.32;;;22.30;56.60;;;;;;5043961;28;20268;-50
2021/09/05 08:17:25;;;;;;;7.63;4.90;;;22.30;57.60;;;;;;5044239;28;20032;-53
2021/09/05 08:20:10;;;;;;;8.60;5.00;;;22.20;57.10;;;;;;5044191;28;20039;-51
2021/09/05 08:22:54;;;;;;;8.23;4.70;;;22.20;57.00;;;;;;5043620;28;20041;-50
2021/09/05 08:25:38;;;;;;;6.30;4.90;;;22.10;57.50;;;;;;5043649;28;20056;-49
2021/09/05 08:28:23;;;;;;;7.30;5.43;;;22.10;58.10;;;;;;5043677;28;20098;-50
2021/09/05 08:31:07;;;;;;;6.43;4.85;;;22.00;57.30;;;;;;5043652;28;20401;-51
2021/09/05 08:33:51;;;;;;;7.80;5.10;;;21.90;57.70;;;;;;5043425;28;20082;-49
2021/09/05 08:36:36;;;;;;;6.82;4.28;;;21.90;57.50;;;;;;5043628;28;20036;-51
2021/09/05 08:39:20;;;;;;;7.78;4.65;;;22.00;58.40;;;;;;5043449;28;20056;-53
2021/09/05 08:42:04;;;;;;;7.97;4.75;;;22.00;59.50;;;;;;5043972;28;20021;-52
2021/09/05 08:44:48;;;;;;;7.20;4.68;;;22.00;59.20;;;;;;5043630;28;20036;-49
2021/09/05 08:47:33;;;;;;;7.75;4.72;;;22.20;59.30;;;;;;5043900;28;20151;-53
2021/09/05 08:50:18;;;;;;;7.95;4.82;;;22.20;58.70;;;;;;5044110;28;20107;-49
2021/09/05 08:53:02;;;;;;;6.10;4.63;;;22.20;56.70;;;;;;5042876;28;20093;-50
2021/09/05 08:55:46;;;;;;;7.43;5.10;;;22.20;56.30;;;;;;5043416;28;20032;-52
2021/09/05 08:58:31;;;;;;;7.85;4.53;;;22.30;56.70;;;;;;5043692;28;20053;-52
2021/09/05 09:01:19;;;;;;;7.68;5.03;;;22.30;55.60;;;;;;5043494;28;20033;-52
2021/09/05 09:04:09;;;;;;;7.82;5.05;;;22.40;56.10;;;;;;5043990;28;20037;-52
2021/09/05 09:06:53;;;;;;;5.88;4.53;;;22.50;54.70;;;;;;5043226;28;20048;-53
2021/09/05 09:10:03;;;;;;;6.97;4.72;;;22.50;54.80;;;;;;5043305;28;20061;-53
2021/09/05 09:12:48;;;;;;;6.90;4.75;;;22.70;55.10;;;;;;5042437;28;20032;-49
2021/09/05 09:15:33;;;;;;;11.80;5.10;;;22.60;53.60;;;;;;5043211;28;20052;-51
2021/09/05 09:18:30;;;;;;;8.02;4.80;;;22.80;56.20;;;;;;5043162;28;20056;-48
2021/09/05 09:21:15;;;;;;;7.60;4.97;;;22.90;55.80;;;;;;5043146;28;20036;-52
2021/09/05 09:24:08;;;;;;;6.85;4.93;;;23.10;56.40;;;;;;5043475;28;20023;-53
2021/09/05 09:26:59;;;;;;;8.60;5.18;;;23.20;56.20;;;;;;5043128;28;20040;-53
2021/09/05 09:29:44;;;;;;;6.30;5.10;;;23.30;53.90;;;;;;5043216;28;20051;-52
2021/09/05 09:32:28;;;;;;;10.30;5.45;;;23.40;53.50;;;;;;5028584;28;20355;-53
2021/09/05 09:35:12;;;;;;;6.72;4.60;;;23.40;53.30;;;;;;5042811;28;20044;-52
2021/09/05 09:37:57;;;;;;;6.20;4.60;;;23.50;54.10;;;;;;5042914;28;20260;-51
2021/09/05 09:40:42;;;;;;;6.47;4.22;;;23.60;52.30;;;;;;5042128;28;20048;-52
2021/09/05 09:43:26;;;;;;;6.85;4.68;;;23.80;53.30;;;;;;5043712;28;20220;-51
2021/09/05 09:46:12;;;;;;;7.50;4.25;;;23.90;53.90;;;;;;5046795;28;20032;-52
2021/09/05 09:48:58;;;;;;;6.57;4.47;;;24.00;54.20;;;;;;5046396;28;20280;-53
2021/09/05 09:51:42;;;;;;;6.78;4.80;;;24.10;53.30;;;;;;5046447;28;20059;-53
2021/09/05 09:54:26;;;;;;;6.35;4.28;;;24.00;51.80;;;;;;5046265;28;20071;-53
2021/09/05 09:57:10;;;;;;;6.40;4.78;;;24.20;52.10;;;;;;5046733;28;20400;-51
2021/09/05 09:59:55;;;;;;;6.43;4.80;;;24.00;51.40;;;;;;5046409;28;20367;-52
2021/09/05 10:02:39;;;;;;;6.65;4.55;;;24.10;51.80;;;;;;5045425;28;20037;-50
2021/09/05 10:05:23;;;;;;;6.18;4.40;;;24.20;53.50;;;;;;5046277;28;20124;-52
2021/09/05 10:08:07;;;;;;;7.15;4.90;;;24.40;54.40;;;;;;5046147;28;20387;-53
2021/09/05 10:10:51;;;;;;;6.75;4.40;;;24.60;54.00;;;;;;5045153;28;20076;-50
2021/09/05 10:13:39;;;;;;;7.78;4.72;;;24.50;51.20;;;;;;5045108;28;20032;-50
2021/09/05 10:16:24;;;;;;;6.80;4.90;;;24.70;52.40;;;;;;5046069;28;20224;-53
2021/09/05 10:19:08;;;;;;;7.75;4.80;;;24.70;52.60;;;;;;5045996;28;20029;-53
2021/09/05 10:21:52;;;;;;;8.05;5.10;;;24.80;51.80;;;;;;5046125;28;20053;-52
2021/09/05 10:24:43;;;;;;;5.57;4.35;;;24.80;51.00;;;;;;5045792;28;20036;-54
2021/09/05 10:27:34;;;;;;;;;;;24.90;53.90;;;;;;5046155;28;20144;-54
2021/09/05 10:30:21;;;;;;;5.88;4.43;;;25.00;52.20;;;;;;5052047;28;19908;-54
2021/09/05 10:33:05;;;;;;;7.72;4.93;;;25.20;51.50;;;;;;5045491;28;20347;-54
2021/09/05 10:35:50;;;;;;;6.90;4.85;;;25.10;51.00;;;;;;5045273;28;20104;-54
2021/09/05 10:38:35;;;;;;;8.07;4.85;;;25.10;50.80;;;;;;5046322;28;20097;-54
2021/09/05 10:41:19;;;;;;;7.40;4.80;;;25.00;50.80;;;;;;5045494;28;20033;-53
2021/09/05 10:44:05;;;;;;;6.32;4.55;;;25.00;52.00;;;;;;5045488;28;20094;-53
2021/09/05 10:46:51;;;;;;;6.25;4.70;;;25.10;52.30;;;;;;5045311;28;20096;-54
2021/09/05 10:49:37;;;;;;;6.55;4.88;;;25.30;53.00;;;;;;5044830;28;20296;-52
2021/09/05 10:52:54;;;;;;;8.85;5.38;;;25.20;50.20;;;;;;5045564;28;20033;-54
2021/09/05 10:56:00;;;;;;;7.10;4.90;;;25.20;49.70;;;;;;5027526;28;20367;-54
2021/09/05 10:58:57;;;;;;;6.88;4.80;;;25.30;51.70;;;;;;5045431;28;20032;-53
2021/09/05 11:01:41;;;;;;;6.00;4.35;;;25.40;49.10;;;;;;5045407;28;20036;-53
2021/09/05 11:04:28;;;;;;;8.07;4.57;;;25.70;51.30;;;;;;5045316;28;20430;-54
2021/09/05 11:07:34;;;;;;;5.55;4.32;;;25.80;50.50;;;;;;5045165;28;20044;-53
2021/09/05 11:10:47;;;;;;;5.57;4.30;;;25.80;47.00;;;;;;5045292;28;20127;-53
2021/09/05 11:13:48;;;;;;;6.47;4.13;;;25.90;47.60;;;;;;5044196;28;20360;-53
2021/09/05 11:16:32;;;;;;;8.00;4.93;;;25.90;45.90;;;;;;5044972;28;20229;-53
2021/09/05 11:19:20;;;;;;;5.97;4.13;;;26.00;46.40;;;;;;5030059;28;20025;-54
2021/09/05 11:22:04;;;;;;;6.32;4.50;;;25.90;47.40;;;;;;5044823;28;20039;-53
2021/09/05 11:25:07;;;;;;;6.90;4.47;;;26.00;47.00;;;;;;5043801;28;20036;-52
2021/09/05 11:28:06;;;;;;;5.68;4.22;;;26.10;45.80;;;;;;5044640;28;20033;-53
2021/09/05 11:30:50;;;;;;;4.72;3.60;;;26.20;44.00;;;;;;5044647;28;20343;-53
2021/09/05 11:33:34;;;;;;;6.55;3.67;;;26.20;44.20;;;;;;5029584;28;20037;-53
2021/09/05 11:36:18;;;;;;;5.07;3.72;;;26.10;42.70;;;;;;5044232;28;20100;-53
2021/09/05 11:39:06;;;;;;;6.97;3.67;;;26.00;41.90;;;;;;5044779;28;20059;-53
2021/09/05 11:42:00;;;;;;;6.07;3.72;;;26.10;41.50;;;;;;5044450;28;20035;-54
2021/09/05 11:44:44;;;;;;;6.40;3.97;;;26.20;41.80;;;;;;5044458;28;20102;-54
2021/09/05 11:47:29;;;;;;;5.75;3.70;;;26.20;41.50;;;;;;5044723;28;20347;-53
2021/09/05 11:50:13;;;;;;;4.90;3.08;;;26.30;41.60;;;;;;5044208;28;20033;-51
2021/09/05 11:52:57;;;;;;;6.78;3.35;;;26.40;43.10;;;;;;5044067;28;20051;-52
2021/09/05 11:55:42;;;;;;;9.02;3.92;;;26.70;43.70;;;;;;5044038;28;20051;-53
2021/09/05 11:58:26;;;;;;;5.28;3.70;;;26.70;42.40;;;;;;5029335;28;20083;-53
2021/09/05 12:01:10;;;;;;;5.43;3.92;;;26.70;40.10;;;;;;5043959;28;20351;-53
2021/09/05 12:03:54;;;;;;;5.30;3.20;;;26.80;41.20;;;;;;5029151;28;20031;-54
2021/09/05 12:06:41;;;;;;;5.57;3.88;;;26.50;40.10;;;;;;5043091;28;20029;-52
2021/09/05 12:09:27;;;;;;;5.45;3.75;;;26.40;40.00;;;;;;5043831;28;20216;-54
2021/09/05 12:12:11;;;;;;;5.05;3.53;;;26.40;39.50;;;;;;5044240;28;20044;-54
2021/09/05 12:14:54;;;;;;;4.45;3.33;;;26.40;39.80;;;;;;5043887;28;20116;-54
2021/09/05 12:17:45;;;;;;;6.82;3.80;;;26.50;41.00;;;;;;5043791;28;20036;-53
2021/09/05 12:20:42;;;;;;;4.78;3.25;;;26.60;39.20;;;;;;5044241;28;20307;-52
2021/09/05 12:23:33;;;;;;;5.05;3.50;;;26.60;39.00;;;;;;5042627;28;20143;-51
2021/09/05 12:26:18;;;;;;;4.72;3.67;;;26.40;38.50;;;;;;5042688;28;20078;-53
2021/09/05 12:29:02;;;;;;;6.22;3.85;;;26.50;40.30;;;;;;5043450;28;20287;-54
2021/09/05 12:31:47;;;;;;;5.45;3.50;;;26.40;39.70;;;;;;5042687;28;20044;-54
2021/09/05 12:34:38;;;;;;;4.95;3.50;;;26.50;39.80;;;;;;5043665;28;20052;-54
2021/09/05 12:37:23;;;;;;;;;;;26.30;37.60;;;;;;5042934;28;20032;-54
2021/09/05 12:40:15;;;;;;;5.38;3.30;;;26.50;40.80;;;;;;5047506;28;20247;-51
2021/09/05 12:42:58;;;;;;;5.72;3.60;;;26.50;39.40;;;;;;5043355;28;20048;-54
2021/09/05 12:45:53;;;;;;;6.25;3.80;;;26.50;39.40;;;;;;5043323;28;20351;-54
2021/09/05 12:48:46;;;;;;;6.45;3.80;;;26.40;39.40;;;;;;5043215;28;20035;-53
2021/09/05 12:51:30;;;;;;;5.30;4.10;;;26.30;40.10;;;;;;5043182;28;20372;-53
2021/09/05 12:54:15;;;;;;;8.93;3.78;;;26.20;39.90;;;;;;5043114;28;20221;-52
2021/09/05 12:56:59;;;;;;;5.45;3.60;;;26.30;40.50;;;;;;5043647;28;20028;-53
2021/09/05 12:59:43;;;;;;;5.63;4.18;;;26.50;41.70;;;;;;5043241;28;20375;-53
2021/09/05 13:02:28;;;;;;;5.40;3.70;;;26.40;41.20;;;;;;5043696;28;20040;-53
2021/09/05 13:05:12;;;;;;;4.70;3.63;;;26.70;41.60;;;;;;5042993;28;20229;-53
2021/09/05 13:07:57;;;;;;;4.90;3.53;;;26.60;41.40;;;;;;5042882;28;20071;-53
2021/09/05 13:10:41;;;;;;;5.50;3.83;;;26.70;42.10;;;;;;5043108;28;20063;-53
2021/09/05 13:13:25;;;;;;;7.57;4.40;;;26.60;41.70;;;;;;5043449;28;20029;-53
2021/09/05 13:16:10;;;;;;;7.15;3.88;;;26.40;41.20;;;;;;5043095;28;20024;-53
2021/09/05 13:18:54;;;;;;;7.47;3.70;;;26.30;40.90;;;;;;5045232;28;20107;-53
2021/09/05 13:21:38;;;;;;;5.85;4.15;;;26.40;43.50;;;;;;5046955;28;20044;-50
2021/09/05 13:24:23;;;;;;;7.32;4.07;;;26.50;44.20;;;;;;5046784;28;20376;-52
2021/09/05 13:27:07;;;;;;;9.27;4.57;;;26.70;45.30;;;;;;5047256;28;20029;-50
2021/09/05 13:29:51;;;;;;;4.93;3.80;;;26.70;44.20;;;;;;5046931;28;20075;-52
2021/09/05 13:32:36;;;;;;;5.85;4.07;;;26.50;42.30;;;;;;5046724;28;20029;-54
2021/09/05 13:35:22;;;;;;;5.75;3.80;;;26.50;43.00;;;;;;5047053;28;20082;-53
2021/09/05 13:38:06;;;;;;;8.07;3.83;;;26.40;42.10;;;;;;5046563;28;20048;-53
2021/09/05 13:40:50;;;;;;;5.38;4.00;;;26.30;42.30;;;;;;5046883;28;20036;-53
2021/09/05 13:43:35;;;;;;;5.28;3.70;;;26.20;42.30;;;;;;5046783;28;20099;-53
2021/09/05 13:46:19;;;;;;;6.03;3.95;;;26.10;42.30;;;;;;5046392;28;20260;-52
2021/09/05 13:49:03;;;;;;;4.90;3.65;;;26.00;42.00;;;;;;5046535;28;20048;-50
2021/09/05 13:51:47;;;;;;;5.53;3.80;;;26.20;42.40;;;;;;5046338;28;20083;-53
2021/09/05 13:54:31;;;;;;;5.80;3.45;;;26.20;42.20;;;;;;5046313;28;20091;-54
2021/09/05 13:57:16;;;;;;;7.05;4.05;;;26.30;43.10;;;;;;5046273;28;20256;-53
2021/09/05 14:00:00;;;;;;;6.05;4.03;;;26.30;43.70;;;;;;5046823;28;20063;-53
2021/09/05 14:02:45;;;;;;;5.50;3.83;;;26.40;42.90;;;;;;5046398;28;20037;-53
2021/09/05 14:05:29;;;;;;;5.32;3.88;;;26.40;41.20;;;;;;5046573;28;20087;-53
2021/09/05 14:08:13;;;;;;;6.13;4.13;;;26.20;40.10;;;;;;5046022;28;20028;-53
2021/09/05 14:10:58;;;;;;;6.68;3.85;;;26.20;40.10;;;;;;5045983;28;20032;-51
2021/09/05 14:13:42;;;;;;;5.47;3.70;;;26.30;42.50;;;;;;5045087;28;20024;-53
2021/09/05 14:16:26;;;;;;;8.07;3.85;;;26.30;43.80;;;;;;5046152;28;20079;-54
2021/09/05 14:19:10;;;;;;;6.78;4.03;;;26.30;41.30;;;;;;5046144;28;20031;-53
2021/09/05 14:21:54;;;;;;;6.43;3.97;;;26.10;41.30;;;;;;5045907;28;20351;-54
2021/09/05 14:24:39;;;;;;;6.22;4.15;;;26.10;41.50;;;;;;5044949;28;20055;-54